sensor_id;sensor_type;location;lat;lon;timestamp;temperature;humidity
1021;DHT22;499;42.648;23.270;2022-12-29T00:00:55;4.90;72.90
1021;DHT22;499;42.648;23.270;2022-12-29T00:03:22;4.70;70.00
1021;DHT22;499;42.648;23.270;2022-12-29T00:05:54;4.70;72.20
1021;DHT22;499;42.648;23.270;2022-12-29T00:08:22;4.60;75.80
1021;DHT22;499;42.648;23.270;2022-12-29T00:11:05;4.80;76.30
1021;DHT22;499;42.648;23.270;2022-12-29T00:13:32;4.80;70.20
1021;DHT22;499;42.648;23.270;2022-12-29T00:16:18;4.90;67.90
1021;DHT22;499;42.648;23.270;2022-12-29T00:18:45;4.90;65.20
1021;DHT22;499;42.648;23.270;2022-12-29T00:21:13;4.90;64.60
1021;DHT22;499;42.648;23.270;2022-12-29T00:23:58;4.80;67.60
1021;DHT22;499;42.648;23.270;2022-12-29T00:26:49;4.90;67.80
1021;DHT22;499;42.648;23.270;2022-12-29T00:29:37;4.80;68.70
1021;DHT22;499;42.648;23.270;2022-12-29T00:32:23;4.90;69.40
1021;DHT22;499;42.648;23.270;2022-12-29T00:35:08;4.90;65.70
1021;DHT22;499;42.648;23.270;2022-12-29T00:37:36;4.80;64.50
1021;DHT22;499;42.648;23.270;2022-12-29T00:40:22;4.90;67.00
1021;DHT22;499;42.648;23.270;2022-12-29T00:43:06;4.80;64.50
1021;DHT22;499;42.648;23.270;2022-12-29T00:45:51;4.80;67.10
1021;DHT22;499;42.648;23.270;2022-12-29T00:48:19;4.90;67.30
1021;DHT22;499;42.648;23.270;2022-12-29T00:51:06;5.10;64.80
1021;DHT22;499;42.648;23.270;2022-12-29T00:53:33;5.10;62.90
1021;DHT22;499;42.648;23.270;2022-12-29T00:56:00;5.00;60.60
1021;DHT22;499;42.648;23.270;2022-12-29T00:58:28;5.00;63.40
1021;DHT22;499;42.648;23.270;2022-12-29T01:01:01;4.90;62.30
1021;DHT22;499;42.648;23.270;2022-12-29T01:03:30;4.90;63.60
1021;DHT22;499;42.648;23.270;2022-12-29T01:05:59;4.90;63.70
1021;DHT22;499;42.648;23.270;2022-12-29T01:08:27;4.90;64.60
1021;DHT22;499;42.648;23.270;2022-12-29T01:11:00;4.80;63.10
1021;DHT22;499;42.648;23.270;2022-12-29T01:13:27;4.70;66.00
1021;DHT22;499;42.648;23.270;2022-12-29T01:15:54;4.80;64.50
1021;DHT22;499;42.648;23.270;2022-12-29T01:18:22;4.70;65.80
1021;DHT22;499;42.648;23.270;2022-12-29T01:20:51;4.70;64.40
1021;DHT22;499;42.648;23.270;2022-12-29T01:23:24;4.60;64.30
1021;DHT22;499;42.648;23.270;2022-12-29T01:25:51;4.50;66.30
1021;DHT22;499;42.648;23.270;2022-12-29T01:28:18;4.50;69.10
1021;DHT22;499;42.648;23.270;2022-12-29T01:30:45;4.70;69.30
1021;DHT22;499;42.648;23.270;2022-12-29T01:33:12;4.70;66.00
1021;DHT22;499;42.648;23.270;2022-12-29T01:35:39;4.50;65.50
1021;DHT22;499;42.648;23.270;2022-12-29T01:38:08;4.60;67.00
1021;DHT22;499;42.648;23.270;2022-12-29T01:40:43;4.50;64.30
1021;DHT22;499;42.648;23.270;2022-12-29T01:43:13;4.40;67.70
1021;DHT22;499;42.648;23.270;2022-12-29T01:45:44;4.50;67.20
1021;DHT22;499;42.648;23.270;2022-12-29T01:48:13;4.30;65.60
1021;DHT22;499;42.648;23.270;2022-12-29T01:50:45;4.30;67.50
1021;DHT22;499;42.648;23.270;2022-12-29T01:53:20;4.20;67.60
1021;DHT22;499;42.648;23.270;2022-12-29T01:55:50;4.10;70.50
1021;DHT22;499;42.648;23.270;2022-12-29T01:58:21;4.00;73.30
1021;DHT22;499;42.648;23.270;2022-12-29T02:00:49;4.00;76.70
1021;DHT22;499;42.648;23.270;2022-12-29T02:03:17;4.20;78.20
1021;DHT22;499;42.648;23.270;2022-12-29T02:05:48;4.30;73.70
1021;DHT22;499;42.648;23.270;2022-12-29T02:08:19;4.20;73.50
1021;DHT22;499;42.648;23.270;2022-12-29T02:10:47;4.20;75.10
1021;DHT22;499;42.648;23.270;2022-12-29T02:13:15;4.20;75.00
1021;DHT22;499;42.648;23.270;2022-12-29T02:15:50;4.30;77.40
1021;DHT22;499;42.648;23.270;2022-12-29T02:18:28;4.50;76.00
1021;DHT22;499;42.648;23.270;2022-12-29T02:21:39;4.50;70.60
1021;DHT22;499;42.648;23.270;2022-12-29T02:33:21;4.70;69.00
1021;DHT22;499;42.648;23.270;2022-12-29T02:35:56;4.50;68.20
1021;DHT22;499;42.648;23.270;2022-12-29T02:38:34;4.60;71.30
1021;DHT22;499;42.648;23.270;2022-12-29T02:41:09;4.60;70.20
1021;DHT22;499;42.648;23.270;2022-12-29T02:43:44;4.80;71.30
1021;DHT22;499;42.648;23.270;2022-12-29T02:46:20;4.80;67.10
1021;DHT22;499;42.648;23.270;2022-12-29T02:48:58;4.80;67.00
1021;DHT22;499;42.648;23.270;2022-12-29T02:51:32;4.70;66.70
1021;DHT22;499;42.648;23.270;2022-12-29T02:54:01;4.70;69.20
1021;DHT22;499;42.648;23.270;2022-12-29T02:56:46;4.60;67.70
1021;DHT22;499;42.648;23.270;2022-12-29T02:59:13;4.50;72.10
1021;DHT22;499;42.648;23.270;2022-12-29T03:02:05;4.40;73.70
1021;DHT22;499;42.648;23.270;2022-12-29T03:04:55;4.40;75.80
1021;DHT22;499;42.648;23.270;2022-12-29T03:07:35;4.40;76.40
1021;DHT22;499;42.648;23.270;2022-12-29T03:10:15;4.40;76.70
1021;DHT22;499;42.648;23.270;2022-12-29T03:12:48;4.30;78.30
1021;DHT22;499;42.648;23.270;2022-12-29T03:15:41;4.20;79.30
1021;DHT22;499;42.648;23.270;2022-12-29T03:18:40;4.30;82.80
1021;DHT22;499;42.648;23.270;2022-12-29T03:21:12;4.30;79.40
1021;DHT22;499;42.648;23.270;2022-12-29T03:23:42;4.30;80.40
1021;DHT22;499;42.648;23.270;2022-12-29T03:26:14;4.10;76.90
1021;DHT22;499;42.648;23.270;2022-12-29T03:28:46;4.20;79.10
1021;DHT22;499;42.648;23.270;2022-12-29T03:31:14;4.30;76.00
1021;DHT22;499;42.648;23.270;2022-12-29T03:33:44;4.30;73.60
1021;DHT22;499;42.648;23.270;2022-12-29T03:36:23;4.30;72.30
1021;DHT22;499;42.648;23.270;2022-12-29T03:38:57;4.10;69.20
1021;DHT22;499;42.648;23.270;2022-12-29T03:41:30;4.00;67.20
1021;DHT22;499;42.648;23.270;2022-12-29T03:43:58;4.00;69.10
1021;DHT22;499;42.648;23.270;2022-12-29T03:46:25;3.80;66.10
1021;DHT22;499;42.648;23.270;2022-12-29T03:48:53;3.70;68.30
1021;DHT22;499;42.648;23.270;2022-12-29T03:51:21;3.70;68.30
1021;DHT22;499;42.648;23.270;2022-12-29T03:53:48;3.70;67.80
1021;DHT22;499;42.648;23.270;2022-12-29T03:56:15;3.60;68.30
1021;DHT22;499;42.648;23.270;2022-12-29T03:58:42;3.40;69.10
1021;DHT22;499;42.648;23.270;2022-12-29T04:01:09;3.40;70.20
1021;DHT22;499;42.648;23.270;2022-12-29T04:03:36;3.30;70.10
1021;DHT22;499;42.648;23.270;2022-12-29T04:06:05;3.20;71.30
1021;DHT22;499;42.648;23.270;2022-12-29T04:08:33;3.10;73.70
1021;DHT22;499;42.648;23.270;2022-12-29T04:11:00;3.20;76.20
1021;DHT22;499;42.648;23.270;2022-12-29T04:13:27;3.00;72.90
1021;DHT22;499;42.648;23.270;2022-12-29T04:15:54;3.00;75.10
1021;DHT22;499;42.648;23.270;2022-12-29T04:18:21;3.00;78.10
1021;DHT22;499;42.648;23.270;2022-12-29T04:20:48;3.10;77.20
1021;DHT22;499;42.648;23.270;2022-12-29T04:23:31;3.10;75.60
1021;DHT22;499;42.648;23.270;2022-12-29T04:25:58;3.00;77.10
1021;DHT22;499;42.648;23.270;2022-12-29T04:28:25;2.90;79.50
1021;DHT22;499;42.648;23.270;2022-12-29T04:30:53;2.90;81.50
1021;DHT22;499;42.648;23.270;2022-12-29T04:33:20;2.90;82.40
1021;DHT22;499;42.648;23.270;2022-12-29T04:35:47;2.90;83.40
1021;DHT22;499;42.648;23.270;2022-12-29T04:38:15;2.80;84.30
1021;DHT22;499;42.648;23.270;2022-12-29T04:40:44;2.70;85.90
1021;DHT22;499;42.648;23.270;2022-12-29T04:43:11;2.80;90.20
1021;DHT22;499;42.648;23.270;2022-12-29T04:45:39;3.20;90.30
1021;DHT22;499;42.648;23.270;2022-12-29T04:48:09;2.80;89.20
1021;DHT22;499;42.648;23.270;2022-12-29T04:50:36;2.90;91.50
1021;DHT22;499;42.648;23.270;2022-12-29T04:53:03;3.00;91.10
1021;DHT22;499;42.648;23.270;2022-12-29T04:55:30;3.00;91.10
1021;DHT22;499;42.648;23.270;2022-12-29T04:57:59;3.10;91.20
1021;DHT22;499;42.648;23.270;2022-12-29T05:00:26;3.10;92.30
1021;DHT22;499;42.648;23.270;2022-12-29T05:02:53;3.10;93.30
1021;DHT22;499;42.648;23.270;2022-12-29T05:05:20;3.10;94.30
1021;DHT22;499;42.648;23.270;2022-12-29T05:07:48;3.20;95.90
1021;DHT22;499;42.648;23.270;2022-12-29T05:10:15;3.20;96.30
1021;DHT22;499;42.648;23.270;2022-12-29T05:12:42;3.40;97.80
1021;DHT22;499;42.648;23.270;2022-12-29T05:15:11;3.50;97.40
1021;DHT22;499;42.648;23.270;2022-12-29T05:18:15;3.70;96.40
1021;DHT22;499;42.648;23.270;2022-12-29T05:20:42;3.80;92.90
1021;DHT22;499;42.648;23.270;2022-12-29T05:23:09;3.80;91.90
1021;DHT22;499;42.648;23.270;2022-12-29T05:25:36;3.70;90.50
1021;DHT22;499;42.648;23.270;2022-12-29T05:28:03;3.70;92.10
1021;DHT22;499;42.648;23.270;2022-12-29T05:30:32;3.70;92.60
1021;DHT22;499;42.648;23.270;2022-12-29T05:32:59;3.70;93.00
1021;DHT22;499;42.648;23.270;2022-12-29T05:35:26;3.60;93.10
1021;DHT22;499;42.648;23.270;2022-12-29T05:37:53;3.70;94.00
1021;DHT22;499;42.648;23.270;2022-12-29T05:40:20;3.80;94.50
1021;DHT22;499;42.648;23.270;2022-12-29T05:42:47;3.80;92.80
1021;DHT22;499;42.648;23.270;2022-12-29T05:45:14;3.80;91.70
1021;DHT22;499;42.648;23.270;2022-12-29T05:47:43;3.80;92.60
1021;DHT22;499;42.648;23.270;2022-12-29T05:50:10;3.90;92.00
1021;DHT22;499;42.648;23.270;2022-12-29T05:52:46;3.80;90.70
1021;DHT22;499;42.648;23.270;2022-12-29T05:55:13;3.80;91.70
1021;DHT22;499;42.648;23.270;2022-12-29T05:57:40;3.90;92.90
1021;DHT22;499;42.648;23.270;2022-12-29T06:00:08;4.10;90.70
1021;DHT22;499;42.648;23.270;2022-12-29T06:02:36;4.10;85.30
1021;DHT22;499;42.648;23.270;2022-12-29T06:05:05;4.10;83.30
1021;DHT22;499;42.648;23.270;2022-12-29T06:07:32;4.20;84.20
1021;DHT22;499;42.648;23.270;2022-12-29T06:09:59;4.30;81.20
1021;DHT22;499;42.648;23.270;2022-12-29T06:12:26;4.10;78.10
1021;DHT22;499;42.648;23.270;2022-12-29T06:14:53;4.00;81.20
1021;DHT22;499;42.648;23.270;2022-12-29T06:17:20;4.00;82.90
1021;DHT22;499;42.648;23.270;2022-12-29T06:19:47;4.00;87.10
1021;DHT22;499;42.648;23.270;2022-12-29T06:22:16;4.00;87.10
1021;DHT22;499;42.648;23.270;2022-12-29T06:24:43;4.10;90.70
1021;DHT22;499;42.648;23.270;2022-12-29T06:27:10;4.30;88.40
1021;DHT22;499;42.648;23.270;2022-12-29T06:29:39;4.40;82.20
1021;DHT22;499;42.648;23.270;2022-12-29T06:32:06;4.40;77.80
1021;DHT22;499;42.648;23.270;2022-12-29T06:34:34;4.20;78.20
1021;DHT22;499;42.648;23.270;2022-12-29T06:37:01;4.30;81.40
1021;DHT22;499;42.648;23.270;2022-12-29T06:39:30;4.30;81.10
1021;DHT22;499;42.648;23.270;2022-12-29T06:41:57;4.30;80.50
1021;DHT22;499;42.648;23.270;2022-12-29T06:44:24;4.20;82.30
1021;DHT22;499;42.648;23.270;2022-12-29T06:46:51;4.30;84.70
1021;DHT22;499;42.648;23.270;2022-12-29T06:49:18;4.40;83.60
1021;DHT22;499;42.648;23.270;2022-12-29T06:51:45;4.40;83.00
1021;DHT22;499;42.648;23.270;2022-12-29T06:54:13;4.50;84.30
1021;DHT22;499;42.648;23.270;2022-12-29T06:56:41;4.60;82.50
1021;DHT22;499;42.648;23.270;2022-12-29T06:59:09;4.40;78.80
1021;DHT22;499;42.648;23.270;2022-12-29T07:01:36;4.50;79.20
1021;DHT22;499;42.648;23.270;2022-12-29T07:04:03;4.50;78.40
1021;DHT22;499;42.648;23.270;2022-12-29T07:06:31;4.70;80.00
1021;DHT22;499;42.648;23.270;2022-12-29T07:08:58;4.90;78.80
1021;DHT22;499;42.648;23.270;2022-12-29T07:11:25;5.10;69.70
1021;DHT22;499;42.648;23.270;2022-12-29T07:13:54;5.10;67.30
1021;DHT22;499;42.648;23.270;2022-12-29T07:16:21;5.20;67.30
1021;DHT22;499;42.648;23.270;2022-12-29T07:18:48;5.30;66.30
1021;DHT22;499;42.648;23.270;2022-12-29T07:21:15;5.40;65.10
1021;DHT22;499;42.648;23.270;2022-12-29T07:23:43;5.40;59.70
1021;DHT22;499;42.648;23.270;2022-12-29T07:26:12;5.30;58.50
1021;DHT22;499;42.648;23.270;2022-12-29T07:28:39;5.20;59.40
1021;DHT22;499;42.648;23.270;2022-12-29T07:31:14;5.40;59.80
1021;DHT22;499;42.648;23.270;2022-12-29T07:33:42;5.50;60.30
1021;DHT22;499;42.648;23.270;2022-12-29T07:36:10;5.50;57.50
1021;DHT22;499;42.648;23.270;2022-12-29T07:38:37;5.50;58.80
1021;DHT22;499;42.648;23.270;2022-12-29T07:41:04;5.60;59.20
1021;DHT22;499;42.648;23.270;2022-12-29T07:43:32;5.70;57.60
1021;DHT22;499;42.648;23.270;2022-12-29T07:45:59;5.60;56.00
1021;DHT22;499;42.648;23.270;2022-12-29T07:48:27;5.60;56.10
1021;DHT22;499;42.648;23.270;2022-12-29T07:50:54;5.70;57.90
1021;DHT22;499;42.648;23.270;2022-12-29T07:53:21;5.80;56.20
1021;DHT22;499;42.648;23.270;2022-12-29T07:55:48;5.90;56.00
1021;DHT22;499;42.648;23.270;2022-12-29T07:58:15;5.70;54.80
1021;DHT22;499;42.648;23.270;2022-12-29T08:00:42;6.00;57.30
1021;DHT22;499;42.648;23.270;2022-12-29T08:03:09;6.20;53.70
1021;DHT22;499;42.648;23.270;2022-12-29T08:05:38;6.30;51.40
1021;DHT22;499;42.648;23.270;2022-12-29T08:08:05;6.10;53.50
1021;DHT22;499;42.648;23.270;2022-12-29T08:10:32;6.10;53.70
1021;DHT22;499;42.648;23.270;2022-12-29T08:12:59;5.90;53.70
1021;DHT22;499;42.648;23.270;2022-12-29T08:15:26;5.90;54.40
1021;DHT22;499;42.648;23.270;2022-12-29T08:17:53;5.80;53.70
1021;DHT22;499;42.648;23.270;2022-12-29T08:20:20;6.00;56.30
1021;DHT22;499;42.648;23.270;2022-12-29T08:22:50;6.00;54.20
1021;DHT22;499;42.648;23.270;2022-12-29T08:25:17;6.10;54.20
1021;DHT22;499;42.648;23.270;2022-12-29T08:27:45;6.00;53.50
1021;DHT22;499;42.648;23.270;2022-12-29T08:30:12;6.00;53.30
1021;DHT22;499;42.648;23.270;2022-12-29T08:32:40;6.00;53.10
1021;DHT22;499;42.648;23.270;2022-12-29T08:35:08;6.00;54.40
1021;DHT22;499;42.648;23.270;2022-12-29T08:37:35;6.10;52.00
1021;DHT22;499;42.648;23.270;2022-12-29T08:40:04;6.10;52.00
1021;DHT22;499;42.648;23.270;2022-12-29T08:42:32;6.20;52.10
1021;DHT22;499;42.648;23.270;2022-12-29T08:44:59;6.30;51.10
1021;DHT22;499;42.648;23.270;2022-12-29T08:47:27;6.20;50.70
1021;DHT22;499;42.648;23.270;2022-12-29T08:49:54;6.00;51.50
1021;DHT22;499;42.648;23.270;2022-12-29T08:52:22;6.10;52.00
1021;DHT22;499;42.648;23.270;2022-12-29T08:54:49;5.90;52.50
1021;DHT22;499;42.648;23.270;2022-12-29T08:57:18;6.10;52.50
1021;DHT22;499;42.648;23.270;2022-12-29T08:59:45;6.20;50.60
1021;DHT22;499;42.648;23.270;2022-12-29T09:02:12;6.20;51.50
1021;DHT22;499;42.648;23.270;2022-12-29T09:04:39;6.10;51.50
1021;DHT22;499;42.648;23.270;2022-12-29T09:07:07;6.30;51.20
1021;DHT22;499;42.648;23.270;2022-12-29T09:09:34;6.20;50.90
1021;DHT22;499;42.648;23.270;2022-12-29T09:12:01;6.40;52.20
1021;DHT22;499;42.648;23.270;2022-12-29T09:14:29;6.40;52.90
1021;DHT22;499;42.648;23.270;2022-12-29T09:16:57;6.50;51.80
1021;DHT22;499;42.648;23.270;2022-12-29T09:19:41;6.70;48.00
1021;DHT22;499;42.648;23.270;2022-12-29T09:22:08;6.60;46.70
1021;DHT22;499;42.648;23.270;2022-12-29T09:24:35;6.30;47.60
1021;DHT22;499;42.648;23.270;2022-12-29T09:27:02;6.40;50.40
1021;DHT22;499;42.648;23.270;2022-12-29T09:29:31;6.50;48.20
1021;DHT22;499;42.648;23.270;2022-12-29T09:31:58;6.60;50.20
1021;DHT22;499;42.648;23.270;2022-12-29T09:34:25;6.80;49.80
1021;DHT22;499;42.648;23.270;2022-12-29T09:36:52;7.00;46.50
1021;DHT22;499;42.648;23.270;2022-12-29T09:39:19;7.10;45.90
1021;DHT22;499;42.648;23.270;2022-12-29T09:41:51;7.10;45.30
1021;DHT22;499;42.648;23.270;2022-12-29T09:44:23;7.00;46.30
1021;DHT22;499;42.648;23.270;2022-12-29T09:46:55;7.10;46.90
1021;DHT22;499;42.648;23.270;2022-12-29T09:49:26;7.20;46.50
1021;DHT22;499;42.648;23.270;2022-12-29T09:52:00;7.00;45.10
1021;DHT22;499;42.648;23.270;2022-12-29T09:54:39;7.00;47.00
1021;DHT22;499;42.648;23.270;2022-12-29T09:57:15;7.20;46.10
1021;DHT22;499;42.648;23.270;2022-12-29T09:59:44;7.40;45.70
1021;DHT22;499;42.648;23.270;2022-12-29T10:02:22;7.50;44.70
1021;DHT22;499;42.648;23.270;2022-12-29T10:04:51;7.60;44.20
1021;DHT22;499;42.648;23.270;2022-12-29T10:07:26;7.80;44.30
1021;DHT22;499;42.648;23.270;2022-12-29T10:10:03;7.90;42.00
1021;DHT22;499;42.648;23.270;2022-12-29T10:15:44;8.10;39.90
1021;DHT22;499;42.648;23.270;2022-12-29T10:18:22;8.20;40.00
1021;DHT22;499;42.648;23.270;2022-12-29T10:20:53;8.30;39.50
1021;DHT22;499;42.648;23.270;2022-12-29T10:23:35;8.20;39.30
1021;DHT22;499;42.648;23.270;2022-12-29T10:26:03;8.30;38.80
1021;DHT22;499;42.648;23.270;2022-12-29T10:28:35;8.40;39.00
1021;DHT22;499;42.648;23.270;2022-12-29T10:31:07;8.60;37.10
1021;DHT22;499;42.648;23.270;2022-12-29T10:33:41;8.60;38.10
1021;DHT22;499;42.648;23.270;2022-12-29T10:36:20;8.70;36.70
1021;DHT22;499;42.648;23.270;2022-12-29T10:38:54;8.90;36.30
1021;DHT22;499;42.648;23.270;2022-12-29T10:41:28;9.00;35.90
1021;DHT22;499;42.648;23.270;2022-12-29T10:44:00;9.00;34.70
1021;DHT22;499;42.648;23.270;2022-12-29T10:46:30;8.90;35.40
1021;DHT22;499;42.648;23.270;2022-12-29T10:49:01;8.90;35.60
1021;DHT22;499;42.648;23.270;2022-12-29T10:51:33;9.00;35.40
1021;DHT22;499;42.648;23.270;2022-12-29T10:54:05;8.90;35.40
1021;DHT22;499;42.648;23.270;2022-12-29T10:56:34;8.80;35.70
1021;DHT22;499;42.648;23.270;2022-12-29T10:59:08;8.80;35.70
1021;DHT22;499;42.648;23.270;2022-12-29T11:01:42;8.90;35.80
1021;DHT22;499;42.648;23.270;2022-12-29T11:04:35;9.00;35.90
1021;DHT22;499;42.648;23.270;2022-12-29T11:07:07;8.80;35.70
1021;DHT22;499;42.648;23.270;2022-12-29T11:09:37;8.70;36.50
1021;DHT22;499;42.648;23.270;2022-12-29T11:12:19;8.70;36.50
1021;DHT22;499;42.648;23.270;2022-12-29T11:14:46;8.60;37.10
1021;DHT22;499;42.648;23.270;2022-12-29T11:17:16;8.50;37.70
1021;DHT22;499;42.648;23.270;2022-12-29T11:19:45;8.60;37.60
1021;DHT22;499;42.648;23.270;2022-12-29T11:22:20;8.50;37.60
1021;DHT22;499;42.648;23.270;2022-12-29T11:24:48;8.50;37.10
1021;DHT22;499;42.648;23.270;2022-12-29T11:27:17;8.70;37.20
1021;DHT22;499;42.648;23.270;2022-12-29T11:29:45;8.80;36.10
1021;DHT22;499;42.648;23.270;2022-12-29T11:32:17;8.80;36.30
1021;DHT22;499;42.648;23.270;2022-12-29T11:34:46;8.80;35.70
1021;DHT22;499;42.648;23.270;2022-12-29T11:37:16;8.70;35.70
1021;DHT22;499;42.648;23.270;2022-12-29T11:39:50;8.90;35.80
1021;DHT22;499;42.648;23.270;2022-12-29T11:42:19;9.00;35.30
1021;DHT22;499;42.648;23.270;2022-12-29T11:44:48;9.00;35.20
1021;DHT22;499;42.648;23.270;2022-12-29T11:47:26;9.00;35.50
1021;DHT22;499;42.648;23.270;2022-12-29T11:49:58;9.20;34.50
1021;DHT22;499;42.648;23.270;2022-12-29T11:52:28;9.30;34.50
1021;DHT22;499;42.648;23.270;2022-12-29T11:54:57;9.40;34.40
1021;DHT22;499;42.648;23.270;2022-12-29T11:57:25;9.50;34.10
1021;DHT22;499;42.648;23.270;2022-12-29T11:59:54;9.50;33.70
1021;DHT22;499;42.648;23.270;2022-12-29T12:02:44;9.50;33.80
1021;DHT22;499;42.648;23.270;2022-12-29T12:05:23;9.60;33.40
1021;DHT22;499;42.648;23.270;2022-12-29T12:07:56;9.70;33.70
1021;DHT22;499;42.648;23.270;2022-12-29T12:10:26;9.70;33.40
1021;DHT22;499;42.648;23.270;2022-12-29T12:13:03;10.00;32.90
1021;DHT22;499;42.648;23.270;2022-12-29T12:15:38;10.30;32.00
1021;DHT22;499;42.648;23.270;2022-12-29T12:18:10;10.50;31.40
1021;DHT22;499;42.648;23.270;2022-12-29T12:20:44;10.60;30.20
1021;DHT22;499;42.648;23.270;2022-12-29T12:23:28;10.80;29.90
1021;DHT22;499;42.648;23.270;2022-12-29T12:26:02;10.90;30.00
1021;DHT22;499;42.648;23.270;2022-12-29T12:28:37;11.10;29.10
1021;DHT22;499;42.648;23.270;2022-12-29T12:31:15;11.10;27.90
1021;DHT22;499;42.648;23.270;2022-12-29T12:33:46;11.10;27.80
1021;DHT22;499;42.648;23.270;2022-12-29T12:36:45;11.00;27.80
1021;DHT22;499;42.648;23.270;2022-12-29T12:39:23;11.00;27.70
1021;DHT22;499;42.648;23.270;2022-12-29T12:42:00;10.80;27.70
1021;DHT22;499;42.648;23.270;2022-12-29T12:44:37;10.70;27.50
1021;DHT22;499;42.648;23.270;2022-12-29T12:47:19;10.80;28.20
1021;DHT22;499;42.648;23.270;2022-12-29T12:50:13;10.80;28.40
1021;DHT22;499;42.648;23.270;2022-12-29T12:53:16;10.80;27.60
1021;DHT22;499;42.648;23.270;2022-12-29T12:56:03;10.70;27.60
1021;DHT22;499;42.648;23.270;2022-12-29T12:58:41;10.50;27.80
1021;DHT22;499;42.648;23.270;2022-12-29T13:01:20;10.40;29.10
1021;DHT22;499;42.648;23.270;2022-12-29T13:04:03;10.50;27.80
1021;DHT22;499;42.648;23.270;2022-12-29T13:06:38;10.60;27.50
1021;DHT22;499;42.648;23.270;2022-12-29T13:09:27;10.50;28.10
1021;DHT22;499;42.648;23.270;2022-12-29T13:12:04;10.30;28.60
1021;DHT22;499;42.648;23.270;2022-12-29T13:14:42;10.10;28.80
1021;DHT22;499;42.648;23.270;2022-12-29T13:17:19;10.00;29.10
1021;DHT22;499;42.648;23.270;2022-12-29T13:19:55;9.80;30.40
1021;DHT22;499;42.648;23.270;2022-12-29T13:22:29;9.80;30.50
1021;DHT22;499;42.648;23.270;2022-12-29T13:25:15;9.60;30.70
1021;DHT22;499;42.648;23.270;2022-12-29T13:27:51;9.70;31.60
1021;DHT22;499;42.648;23.270;2022-12-29T13:30:20;9.70;31.60
1021;DHT22;499;42.648;23.270;2022-12-29T13:32:54;9.60;32.90
1021;DHT22;499;42.648;23.270;2022-12-29T13:35:41;9.60;33.70
1021;DHT22;499;42.648;23.270;2022-12-29T13:38:17;9.80;33.80
1021;DHT22;499;42.648;23.270;2022-12-29T13:40:49;9.60;34.20
1021;DHT22;499;42.648;23.270;2022-12-29T13:43:18;9.40;34.70
1021;DHT22;499;42.648;23.270;2022-12-29T13:45:58;9.50;35.30
1021;DHT22;499;42.648;23.270;2022-12-29T13:48:35;9.50;35.50
1021;DHT22;499;42.648;23.270;2022-12-29T13:51:04;9.60;35.80
1021;DHT22;499;42.648;23.270;2022-12-29T13:53:37;9.60;35.50
1021;DHT22;499;42.648;23.270;2022-12-29T13:56:14;9.70;35.50
1021;DHT22;499;42.648;23.270;2022-12-29T13:58:52;9.70;35.40
1021;DHT22;499;42.648;23.270;2022-12-29T14:01:24;9.50;35.90
1021;DHT22;499;42.648;23.270;2022-12-29T14:03:55;9.50;36.30
1021;DHT22;499;42.648;23.270;2022-12-29T14:06:25;9.60;36.40
1021;DHT22;499;42.648;23.270;2022-12-29T14:08:54;9.50;36.30
1021;DHT22;499;42.648;23.270;2022-12-29T14:11:30;9.50;36.30
1021;DHT22;499;42.648;23.270;2022-12-29T14:13:58;9.40;36.20
1021;DHT22;499;42.648;23.270;2022-12-29T14:16:35;9.40;36.20
1021;DHT22;499;42.648;23.270;2022-12-29T14:19:11;9.30;36.20
1021;DHT22;499;42.648;23.270;2022-12-29T14:21:39;9.20;36.70
1021;DHT22;499;42.648;23.270;2022-12-29T14:24:41;8.90;38.80
1021;DHT22;499;42.648;23.270;2022-12-29T14:33:21;8.70;40.20
1021;DHT22;499;42.648;23.270;2022-12-29T14:35:49;8.60;40.30
1021;DHT22;499;42.648;23.270;2022-12-29T14:38:23;8.60;40.30
1021;DHT22;499;42.648;23.270;2022-12-29T14:40:52;8.50;40.20
1021;DHT22;499;42.648;23.270;2022-12-29T14:43:24;8.50;40.20
1021;DHT22;499;42.648;23.270;2022-12-29T14:45:55;8.40;41.20
1021;DHT22;499;42.648;23.270;2022-12-29T14:48:52;8.30;41.30
1021;DHT22;499;42.648;23.270;2022-12-29T14:51:29;8.30;40.60
1021;DHT22;499;42.648;23.270;2022-12-29T14:53:57;8.20;41.10
1021;DHT22;499;42.648;23.270;2022-12-29T14:56:26;8.10;41.40
1021;DHT22;499;42.648;23.270;2022-12-29T14:58:56;7.90;42.30
1021;DHT22;499;42.648;23.270;2022-12-29T15:01:36;7.90;43.10
1021;DHT22;499;42.648;23.270;2022-12-29T15:04:18;7.80;43.70
1021;DHT22;499;42.648;23.270;2022-12-29T15:06:46;7.60;44.10
1021;DHT22;499;42.648;23.270;2022-12-29T15:09:23;7.50;45.20
1021;DHT22;499;42.648;23.270;2022-12-29T15:11:53;7.40;45.40
1021;DHT22;499;42.648;23.270;2022-12-29T15:14:33;7.40;46.00
1021;DHT22;499;42.648;23.270;2022-12-29T15:17:01;7.40;46.40
1021;DHT22;499;42.648;23.270;2022-12-29T15:19:36;7.30;46.30
1021;DHT22;499;42.648;23.270;2022-12-29T15:22:04;7.30;46.50
1021;DHT22;499;42.648;23.270;2022-12-29T15:24:32;7.30;47.10
1021;DHT22;499;42.648;23.270;2022-12-29T15:27:03;7.10;47.40
1021;DHT22;499;42.648;23.270;2022-12-29T15:29:33;7.00;48.20
1021;DHT22;499;42.648;23.270;2022-12-29T15:32:17;6.90;49.00
1021;DHT22;499;42.648;23.270;2022-12-29T15:34:47;6.80;50.00
1021;DHT22;499;42.648;23.270;2022-12-29T15:37:22;6.70;49.60
1021;DHT22;499;42.648;23.270;2022-12-29T15:39:50;6.70;50.30
1021;DHT22;499;42.648;23.270;2022-12-29T15:42:32;6.50;51.70
1021;DHT22;499;42.648;23.270;2022-12-29T15:45:05;6.50;53.40
1021;DHT22;499;42.648;23.270;2022-12-29T15:47:34;6.40;55.30
1021;DHT22;499;42.648;23.270;2022-12-29T15:50:05;6.40;55.70
1021;DHT22;499;42.648;23.270;2022-12-29T15:52:33;6.40;56.70
1021;DHT22;499;42.648;23.270;2022-12-29T15:55:01;6.40;55.60
1021;DHT22;499;42.648;23.270;2022-12-29T15:57:30;6.40;56.10
1021;DHT22;499;42.648;23.270;2022-12-29T15:59:58;6.40;56.60
1021;DHT22;499;42.648;23.270;2022-12-29T16:02:27;6.40;56.70
1021;DHT22;499;42.648;23.270;2022-12-29T16:04:55;6.50;56.70
1021;DHT22;499;42.648;23.270;2022-12-29T16:07:27;6.40;56.00
1021;DHT22;499;42.648;23.270;2022-12-29T16:09:55;6.40;57.60
1021;DHT22;499;42.648;23.270;2022-12-29T16:12:25;6.40;56.70
1021;DHT22;499;42.648;23.270;2022-12-29T16:14:55;6.40;57.10
1021;DHT22;499;42.648;23.270;2022-12-29T16:17:25;6.30;59.30
1021;DHT22;499;42.648;23.270;2022-12-29T16:19:56;6.20;58.90
1021;DHT22;499;42.648;23.270;2022-12-29T16:22:29;6.20;60.70
1021;DHT22;499;42.648;23.270;2022-12-29T16:24:59;6.20;61.00
1021;DHT22;499;42.648;23.270;2022-12-29T16:27:32;6.20;61.00
1021;DHT22;499;42.648;23.270;2022-12-29T16:30:04;6.20;59.90
1021;DHT22;499;42.648;23.270;2022-12-29T16:32:32;6.20;60.20
1021;DHT22;499;42.648;23.270;2022-12-29T16:35:13;6.10;59.60
1021;DHT22;499;42.648;23.270;2022-12-29T16:37:42;6.00;59.70
1021;DHT22;499;42.648;23.270;2022-12-29T16:40:27;6.00;61.50
1021;DHT22;499;42.648;23.270;2022-12-29T16:42:57;5.90;62.70
1021;DHT22;499;42.648;23.270;2022-12-29T16:48:45;5.80;61.70
1021;DHT22;499;42.648;23.270;2022-12-29T16:51:14;5.80;62.90
1021;DHT22;499;42.648;23.270;2022-12-29T16:53:49;5.70;63.80
1021;DHT22;499;42.648;23.270;2022-12-29T16:56:18;5.70;63.40
1021;DHT22;499;42.648;23.270;2022-12-29T16:58:47;5.50;65.20
1021;DHT22;499;42.648;23.270;2022-12-29T17:01:15;5.50;65.30
1021;DHT22;499;42.648;23.270;2022-12-29T17:03:48;5.60;65.30
1021;DHT22;499;42.648;23.270;2022-12-29T17:06:16;5.60;65.30
1021;DHT22;499;42.648;23.270;2022-12-29T17:08:46;5.60;65.30